createdAt,value
2019-01-05T00:00:49.211Z,2.95
2019-01-05T00:03:45.977Z,2.92
2019-01-05T00:06:36.636Z,2.87
2019-01-05T00:09:26.278Z,2.86
2019-01-05T00:12:14.855Z,2.39
2019-01-05T00:15:07.671Z,2.86
2019-01-05T00:17:54.269Z,2.86
2019-01-05T00:20:51.192Z,2.90
2019-01-05T00:23:31.279Z,3.06
2019-01-05T00:26:20.154Z,2.85
2019-01-05T00:29:09.580Z,2.97
2019-01-05T00:32:00.689Z,2.91
2019-01-05T00:34:59.487Z,2.81
2019-01-05T00:38:05.986Z,2.98
2019-01-05T00:41:01.488Z,2.89
2019-01-05T00:43:49.547Z,3.15
2019-01-05T00:46:36.225Z,3.15
2019-01-05T00:49:28.387Z,3.18
2019-01-05T00:52:18.278Z,3.01
2019-01-05T00:55:13.968Z,2.84
2019-01-05T00:58:00.529Z,2.88
2019-01-05T01:00:51.551Z,2.87
2019-01-05T01:03:51.325Z,2.76
2019-01-05T01:06:39.932Z,2.83
2019-01-05T01:09:26.640Z,2.74
2019-01-05T01:12:13.533Z,2.68
2019-01-05T01:15:04.909Z,2.80
2019-01-05T01:17:57.195Z,2.75
2019-01-05T01:20:44.949Z,2.80
2019-01-05T01:23:32.052Z,2.72
2019-01-05T01:26:26.485Z,2.75
2019-01-05T01:29:29.332Z,2.70
2019-01-05T01:32:20.149Z,2.68
2019-01-05T01:35:04.287Z,2.84
2019-01-05T01:38:37.026Z,2.95
2019-01-05T01:41:27.536Z,2.73
2019-01-05T01:44:16.563Z,2.74
2019-01-05T01:47:16.895Z,2.69
2019-01-05T01:50:03.489Z,2.82
2019-01-05T01:52:51.265Z,2.76
2019-01-05T01:55:38.311Z,2.64
2019-01-05T01:58:35.293Z,2.85
2019-01-05T02:01:32.584Z,2.79
2019-01-05T02:04:23.378Z,2.63
2019-01-05T02:07:11.131Z,2.78
2019-01-05T02:10:05.034Z,2.95
2019-01-05T02:13:02.416Z,2.91
2019-01-05T02:16:02.883Z,2.99
2019-01-05T02:19:38.005Z,2.96
2019-01-05T02:22:55.440Z,2.97
2019-01-05T02:26:16.058Z,2.80
2019-01-05T02:29:58.954Z,2.85
2019-01-05T02:33:06.907Z,2.67
2019-01-05T02:36:27.535Z,2.69
2019-01-05T02:39:51.033Z,2.83
2019-01-05T02:43:04.496Z,2.74
2019-01-05T02:46:43.070Z,2.53
2019-01-05T02:50:33.737Z,2.73
2019-01-05T02:53:48.682Z,2.68
2019-01-05T02:57:19.503Z,2.67
2019-01-05T03:00:25.028Z,2.65
2019-01-05T03:03:37.988Z,2.59
2019-01-05T03:07:13.015Z,2.53
2019-01-05T03:10:31.028Z,2.72
2019-01-05T03:14:23.720Z,2.74
2019-01-05T03:17:31.409Z,2.57
2019-01-05T03:20:54.657Z,2.55
2019-01-05T03:24:22.084Z,2.54
2019-01-05T03:28:03.075Z,2.45
2019-01-05T03:31:23.258Z,2.59
2019-01-05T03:35:00.249Z,2.49
2019-01-05T03:38:53.499Z,2.68
2019-01-05T03:42:16.576Z,2.35
2019-01-05T03:45:59.682Z,2.39
2019-01-05T03:49:09.537Z,2.24
2019-01-05T03:52:46.419Z,2.17
2019-01-05T03:56:38.595Z,2.28
2019-01-05T04:00:20.733Z,2.19
2019-01-05T04:03:50.089Z,2.28
2019-01-05T04:07:39.404Z,1.98
2019-01-05T04:11:16.373Z,2.12
2019-01-05T04:14:51.270Z,1.95
2019-01-05T04:18:15.448Z,2.14
2019-01-05T04:22:16.988Z,2.21
2019-01-05T04:25:45.056Z,2.19
2019-01-05T04:29:35.096Z,2.21
2019-01-05T04:33:04.974Z,2.24
2019-01-05T04:36:31.905Z,2.27
2019-01-05T04:40:18.880Z,1.84
2019-01-05T04:43:34.876Z,2.03
2019-01-05T04:47:10.615Z,2.09
2019-01-05T04:50:40.875Z,2.22
2019-01-05T04:54:25.203Z,2.15
2019-01-05T04:57:37.173Z,1.90
2019-01-05T05:01:20.278Z,2.02
2019-01-05T05:04:50.533Z,2.04
2019-01-05T05:08:01.980Z,2.06
2019-01-05T05:11:27.857Z,2.09
2019-01-05T05:15:09.965Z,1.81
2019-01-05T05:18:57.504Z,1.71
2019-01-05T05:22:27.404Z,1.65
2019-01-05T05:25:48.222Z,1.78
2019-01-05T05:29:30.207Z,1.74
2019-01-05T05:33:06.522Z,2.01
2019-01-05T05:36:39.636Z,1.84
2019-01-05T05:40:20.749Z,1.86
2019-01-05T05:43:57.029Z,1.90
2019-01-05T05:47:19.553Z,1.86
2019-01-05T05:50:37.570Z,1.83
2019-01-05T05:53:59.881Z,2.01
2019-01-05T05:57:34.939Z,2.12
2019-01-05T06:00:59.960Z,1.88
2019-01-05T06:04:36.803Z,1.95
2019-01-05T06:07:58.361Z,2.01
2019-01-05T06:11:27.899Z,1.92
2019-01-05T06:15:06.642Z,1.76
2019-01-05T06:18:44.770Z,1.90
2019-01-05T06:22:31.649Z,1.71
2019-01-05T06:26:14.698Z,2.03
2019-01-05T06:29:49.587Z,1.70
2019-01-05T06:33:25.334Z,1.78
2019-01-05T06:37:18.711Z,1.79
2019-01-05T06:40:32.454Z,1.86
2019-01-05T06:44:31.309Z,2.06
2019-01-05T06:48:01.852Z,2.02
2019-01-05T06:51:40.577Z,1.92
2019-01-05T06:55:00.841Z,2.04
2019-01-05T06:58:46.131Z,1.98
2019-01-05T07:02:33.234Z,2.20
2019-01-05T07:06:05.869Z,2.19
2019-01-05T07:09:28.708Z,2.17
2019-01-05T07:13:21.960Z,2.13
2019-01-05T07:17:15.626Z,2.07
2019-01-05T07:20:47.902Z,2.20
2019-01-05T07:24:19.419Z,2.12
2019-01-05T07:27:53.315Z,2.19
2019-01-05T07:31:09.450Z,2.06
2019-01-05T07:34:34.158Z,2.02
2019-01-05T07:38:09.690Z,2.14
2019-01-05T07:41:36.457Z,2.07
2019-01-05T07:44:52.705Z,2.13
2019-01-05T07:48:32.867Z,2.13
2019-01-05T07:51:55.568Z,2.28
2019-01-05T07:55:19.656Z,2.12
2019-01-05T07:59:24.833Z,2.09
2019-01-05T08:02:52.456Z,2.16
2019-01-05T08:06:41.517Z,2.33
2019-01-05T08:10:03.060Z,2.33
2019-01-05T08:13:29.749Z,2.15
2019-01-05T08:16:57.768Z,2.27
2019-01-05T08:20:28.913Z,2.07
2019-01-05T08:24:02.226Z,2.04
2019-01-05T08:27:32.054Z,2.21
2019-01-05T08:31:10.619Z,2.29
2019-01-05T08:34:32.614Z,2.21
2019-01-05T08:38:05.872Z,2.10
2019-01-05T08:41:39.000Z,2.00
2019-01-05T08:44:58.499Z,2.14
2019-01-05T08:48:25.310Z,2.10
2019-01-05T08:51:39.673Z,2.11
2019-01-05T08:55:10.742Z,2.26
2019-01-05T08:58:37.576Z,2.27
2019-01-05T09:02:35.541Z,2.29
2019-01-05T09:06:20.426Z,2.28
2019-01-05T09:09:53.585Z,2.30
2019-01-05T09:13:25.046Z,2.28
2019-01-05T09:16:58.813Z,2.22
2019-01-05T09:20:36.616Z,2.24
2019-01-05T09:24:12.245Z,2.28
2019-01-05T09:27:47.606Z,2.41
2019-01-05T09:31:11.961Z,2.32
2019-01-05T09:34:34.574Z,2.31
2019-01-05T09:38:00.185Z,2.40
2019-01-05T09:41:21.419Z,2.39
2019-01-05T09:44:39.447Z,2.47
2019-01-05T09:48:21.697Z,2.51
2019-01-05T09:52:05.530Z,2.56
2019-01-05T09:55:44.460Z,2.57
2019-01-05T09:59:10.478Z,2.65
2019-01-05T10:02:48.511Z,2.61
2019-01-05T10:06:26.795Z,2.63
2019-01-05T10:09:53.426Z,2.86
2019-01-05T10:13:21.680Z,2.78
2019-01-05T10:16:48.216Z,2.90
2019-01-05T10:20:05.460Z,2.95
2019-01-05T10:23:35.582Z,2.80
2019-01-05T10:27:08.930Z,2.79
2019-01-05T10:30:47.766Z,2.87
2019-01-05T10:34:17.695Z,3.08
2019-01-05T10:37:39.850Z,3.05
2019-01-05T10:41:02.842Z,3.27
2019-01-05T10:44:28.035Z,3.43
2019-01-05T10:47:36.580Z,3.60
2019-01-05T10:51:18.653Z,3.71
2019-01-05T10:54:53.556Z,3.80
2019-01-05T10:58:16.895Z,3.75
2019-01-05T11:01:36.874Z,3.84
2019-01-05T11:04:55.485Z,3.89
2019-01-05T11:08:29.127Z,3.87
2019-01-05T11:12:12.249Z,4.12
2019-01-05T11:15:42.743Z,4.13
2019-01-05T11:19:22.536Z,4.11
2019-01-05T11:23:02.926Z,3.94
2019-01-05T11:26:21.555Z,4.21
2019-01-05T11:29:55.010Z,4.21
2019-01-05T11:33:34.530Z,4.15
2019-01-05T11:37:31.741Z,4.19
2019-01-05T11:40:57.608Z,4.22
2019-01-05T11:44:14.501Z,4.05
2019-01-05T11:47:15.265Z,3.98
2019-01-05T11:50:48.048Z,4.04
2019-01-05T11:54:06.819Z,4.13
2019-01-05T11:57:50.079Z,3.91
2019-01-05T12:01:06.259Z,4.37
2019-01-05T12:05:01.561Z,3.98
2019-01-05T12:08:44.591Z,4.17
2019-01-05T12:12:07.702Z,4.15
2019-01-05T12:15:47.693Z,4.34
2019-01-05T12:19:21.148Z,4.51
2019-01-05T12:22:43.927Z,4.74
2019-01-05T12:26:26.071Z,4.81
2019-01-05T12:29:48.080Z,4.95
2019-01-05T12:33:14.213Z,5.27
2019-01-05T12:37:16.916Z,5.34
2019-01-05T12:40:33.026Z,5.20
2019-01-05T12:44:25.209Z,5.11
2019-01-05T12:47:47.641Z,5.10
2019-01-05T12:50:58.199Z,5.36
2019-01-05T12:54:04.384Z,5.60
2019-01-05T12:57:34.136Z,5.77
2019-01-05T13:01:10.811Z,5.10
2019-01-05T13:05:00.543Z,5.18
2019-01-05T13:08:22.354Z,5.46
2019-01-05T13:11:45.141Z,5.56
2019-01-05T13:15:18.491Z,5.53
2019-01-05T13:18:54.750Z,5.44
2019-01-05T13:22:25.006Z,5.69
2019-01-05T13:26:11.703Z,5.70
2019-01-05T13:29:35.192Z,5.80
2019-01-05T13:33:10.094Z,5.88
2019-01-05T13:36:52.575Z,5.87
2019-01-05T13:40:50.901Z,5.88
2019-01-05T13:44:39.392Z,5.95
2019-01-05T13:48:28.598Z,5.96
2019-01-05T13:51:52.673Z,5.91
2019-01-05T13:54:50.806Z,5.96
2019-01-05T13:57:40.953Z,5.97
2019-01-05T14:00:21.101Z,6.02
2019-01-05T14:03:18.385Z,6.04
2019-01-05T14:06:05.992Z,5.89
2019-01-05T14:09:13.549Z,5.95
2019-01-05T14:12:09.893Z,5.90
2019-01-05T14:15:03.846Z,6.04
2019-01-05T14:17:58.936Z,6.10
2019-01-05T14:20:47.087Z,6.00
2019-01-05T14:23:34.436Z,6.10
2019-01-05T14:26:25.387Z,6.07
2019-01-05T14:29:13.721Z,6.07
2019-01-05T14:32:00.338Z,6.20
2019-01-05T14:34:51.415Z,6.19
2019-01-05T14:37:37.298Z,6.21
2019-01-05T14:40:24.941Z,6.24
2019-01-05T14:43:11.934Z,6.39
2019-01-05T14:46:00.577Z,6.28
2019-01-05T14:48:50.298Z,6.27
2019-01-05T14:51:57.084Z,6.18
2019-01-05T14:54:46.001Z,6.23
2019-01-05T14:57:50.910Z,6.18
2019-01-05T15:00:36.092Z,6.07
2019-01-05T15:03:23.206Z,6.17
2019-01-05T15:06:09.875Z,6.10
2019-01-05T15:09:15.911Z,6.10
2019-01-05T15:12:05.921Z,5.95
2019-01-05T15:14:55.186Z,5.96
2019-01-05T15:17:55.482Z,6.03
2019-01-05T15:20:42.156Z,5.98
2019-01-05T15:23:42.057Z,6.01
2019-01-05T15:26:28.869Z,6.03
2019-01-05T15:29:15.496Z,6.06
2019-01-05T15:32:03.506Z,5.91
2019-01-05T15:34:50.395Z,5.96
2019-01-05T15:37:41.142Z,5.93
2019-01-05T15:40:35.043Z,6.03
2019-01-05T15:43:29.093Z,5.91
2019-01-05T15:46:42.484Z,6.10
2019-01-05T15:49:24.540Z,5.92
2019-01-05T15:52:12.702Z,5.84
2019-01-05T15:55:06.769Z,5.90
2019-01-05T15:57:53.333Z,5.83
2019-01-05T16:00:40.536Z,5.85
2019-01-05T16:03:32.687Z,5.99
2019-01-05T16:06:27.000Z,5.91
2019-01-05T16:09:16.636Z,5.98
2019-01-05T16:12:04.089Z,5.94
2019-01-05T16:14:54.234Z,5.90
2019-01-05T16:17:39.304Z,5.96
2019-01-05T16:20:38.036Z,5.94
2019-01-05T16:23:37.901Z,6.02
2019-01-05T16:26:38.086Z,6.02
2019-01-05T16:29:26.764Z,5.98
2019-01-05T16:32:13.315Z,6.04
2019-01-05T16:34:59.891Z,6.04
2019-01-05T16:37:47.033Z,6.07
2019-01-05T16:40:33.667Z,6.10
2019-01-05T16:43:26.694Z,6.05
2019-01-05T16:46:26.805Z,6.01
2019-01-05T16:49:29.825Z,5.97
2019-01-05T16:52:38.702Z,6.01
2019-01-05T16:55:29.047Z,6.07
2019-01-05T16:58:36.840Z,6.05
2019-01-05T17:01:33.773Z,5.97
2019-01-05T17:04:35.349Z,6.18
2019-01-05T17:07:43.308Z,6.08
2019-01-05T17:10:31.372Z,6.01
2019-01-05T17:13:31.366Z,6.11
2019-01-05T17:16:17.046Z,5.97
2019-01-05T17:19:05.185Z,6.05
2019-01-05T17:22:07.171Z,6.12
2019-01-05T17:24:53.767Z,6.06
2019-01-05T17:27:42.359Z,6.05
2019-01-05T17:30:33.011Z,6.00
2019-01-05T17:33:33.678Z,6.07
2019-01-05T17:36:24.015Z,5.98
2019-01-05T17:39:27.314Z,5.92
2019-01-05T17:42:16.228Z,5.90
2019-01-05T17:45:22.946Z,6.39
2019-01-05T17:48:25.175Z,6.25
2019-01-05T17:51:22.051Z,6.03
2019-01-05T17:54:12.572Z,6.02
2019-01-05T17:56:46.807Z,5.93
2019-01-05T17:59:54.137Z,5.88
2019-01-05T18:03:03.803Z,5.84
2019-01-05T18:05:52.425Z,5.79
2019-01-05T18:08:29.416Z,5.94
2019-01-05T18:11:10.052Z,5.85
2019-01-05T18:13:57.863Z,5.86
2019-01-05T18:16:44.922Z,5.78
2019-01-05T18:19:44.396Z,5.95
2019-01-05T18:22:36.244Z,5.88
2019-01-05T18:25:36.559Z,5.82
2019-01-05T18:28:25.640Z,5.75
2019-01-05T18:31:12.829Z,5.74
2019-01-05T18:33:59.547Z,5.75
2019-01-05T18:36:48.485Z,5.62
2019-01-05T18:39:39.241Z,5.72
2019-01-05T18:42:45.627Z,5.71
2019-01-05T18:45:32.584Z,5.84
2019-01-05T18:48:20.754Z,5.83
2019-01-05T18:51:11.411Z,5.79
2019-01-05T18:54:12.010Z,5.74
2019-01-05T18:56:58.981Z,5.80
2019-01-05T18:59:56.187Z,5.78
2019-01-05T19:02:47.084Z,5.86
2019-01-05T19:05:35.018Z,5.92
2019-01-05T19:08:23.991Z,5.72
2019-01-05T19:11:10.794Z,5.63
2019-01-05T19:14:11.253Z,5.82
2019-01-05T19:17:02.460Z,5.78
2019-01-05T19:19:54.485Z,5.71
2019-01-05T19:22:57.503Z,5.86
2019-01-05T19:25:44.619Z,5.83
2019-01-05T19:28:22.488Z,5.83
2019-01-05T19:31:11.221Z,5.80
2019-01-05T19:34:02.357Z,5.73
2019-01-05T19:36:53.044Z,5.68
2019-01-05T19:39:39.684Z,5.73
2019-01-05T19:42:28.188Z,5.75
2019-01-05T19:45:17.499Z,5.80
2019-01-05T19:48:04.167Z,5.87
2019-01-05T19:50:51.449Z,5.92
2019-01-05T19:53:46.089Z,5.83
2019-01-05T19:56:34.308Z,5.71
2019-01-05T19:59:20.257Z,5.75
2019-01-05T20:02:26.720Z,5.69
2019-01-05T20:05:17.943Z,5.69
2019-01-05T20:08:13.312Z,5.68
2019-01-05T20:11:03.422Z,5.80
2019-01-05T20:13:46.546Z,5.61
2019-01-05T20:16:36.904Z,5.59
2019-01-05T20:19:25.115Z,5.60
2019-01-05T20:22:16.593Z,5.66
2019-01-05T20:25:27.635Z,5.57
2019-01-05T20:28:32.253Z,5.77
2019-01-05T20:31:17.174Z,5.57
2019-01-05T20:34:08.350Z,5.71
2019-01-05T20:36:59.547Z,5.67
2019-01-05T20:39:53.818Z,5.73
2019-01-05T20:43:02.237Z,5.59
2019-01-05T20:46:00.528Z,5.68
2019-01-05T20:48:45.610Z,5.73
2019-01-05T20:51:42.236Z,5.63
2019-01-05T20:54:38.755Z,5.66
2019-01-05T20:57:25.474Z,5.49
2019-01-05T21:00:12.331Z,5.46
2019-01-05T21:03:32.228Z,5.46
2019-01-05T21:06:20.128Z,5.52
2019-01-05T21:09:14.159Z,5.51
2019-01-05T21:12:03.587Z,5.45
2019-01-05T21:14:58.811Z,5.48
2019-01-05T21:17:52.656Z,5.56
2019-01-05T21:20:55.623Z,5.42
2019-01-05T21:23:55.817Z,5.37
2019-01-05T21:26:43.803Z,5.29
2019-01-05T21:29:44.120Z,5.41
2019-01-05T21:32:32.910Z,5.56
2019-01-05T21:35:25.267Z,5.53
2019-01-05T21:38:20.883Z,5.45
2019-01-05T21:41:15.734Z,5.37
2019-01-05T21:44:09.920Z,5.32
2019-01-05T21:46:56.474Z,5.24
2019-01-05T21:49:53.695Z,5.34
2019-01-05T21:52:44.634Z,5.20
2019-01-05T21:55:41.416Z,5.08
2019-01-05T21:58:34.073Z,5.06
2019-01-05T22:01:22.713Z,5.08
2019-01-05T22:04:19.990Z,5.17
2019-01-05T22:07:13.018Z,5.12
2019-01-05T22:09:55.546Z,5.11
2019-01-05T22:13:04.182Z,5.06
2019-01-05T22:15:53.766Z,5.17
2019-01-05T22:18:40.414Z,5.14
2019-01-05T22:21:27.229Z,5.26
2019-01-05T22:24:23.882Z,5.24
2019-01-05T22:27:10.668Z,5.26
2019-01-05T22:30:05.186Z,5.22
2019-01-05T22:32:54.828Z,5.28
2019-01-05T22:35:52.695Z,5.22
2019-01-05T22:38:43.643Z,5.19
2019-01-05T22:41:31.766Z,5.18
2019-01-05T22:44:18.529Z,5.09
2019-01-05T22:47:24.140Z,5.10
2019-01-05T22:50:10.387Z,5.12
2019-01-05T22:53:02.789Z,5.16
2019-01-05T22:55:53.780Z,5.14
2019-01-05T22:58:40.366Z,5.16
2019-01-05T23:01:37.519Z,5.19
2019-01-05T23:04:37.545Z,5.10
2019-01-05T23:07:34.919Z,5.24
2019-01-05T23:10:41.212Z,5.21
2019-01-05T23:13:28.037Z,5.17
2019-01-05T23:16:10.143Z,5.09
2019-01-05T23:19:03.493Z,5.05
2019-01-05T23:22:06.128Z,5.18
2019-01-05T23:24:52.889Z,5.11
2019-01-05T23:27:39.835Z,5.23
2019-01-05T23:30:37.267Z,5.04
2019-01-05T23:33:22.419Z,5.15
2019-01-05T23:36:19.377Z,5.21
2019-01-05T23:39:21.195Z,5.11
2019-01-05T23:42:08.026Z,5.07
2019-01-05T23:44:56.997Z,5.12
2019-01-05T23:47:43.875Z,5.15
2019-01-05T23:50:30.802Z,5.26
2019-01-05T23:53:13.877Z,5.13
2019-01-05T23:56:00.416Z,5.19
2019-01-05T23:58:47.357Z,5.14
